createdAt,value
2023-04-16T00:00:53.105Z,954.8494
2023-04-16T00:01:53.850Z,954.8564
2023-04-16T00:02:54.657Z,954.8588
2023-04-16T00:03:55.935Z,954.8553
2023-04-16T00:04:56.746Z,954.8759
2023-04-16T00:05:57.358Z,954.8842
2023-04-16T00:06:58.051Z,954.8776
2023-04-16T00:07:58.662Z,954.8847
2023-04-16T00:08:59.323Z,954.8729
2023-04-16T00:10:00.008Z,954.8794
2023-04-16T00:11:00.673Z,954.8794
2023-04-16T00:12:01.332Z,954.8859
2023-04-16T00:13:02.053Z,954.8712
2023-04-16T00:14:02.663Z,954.8665
2023-04-16T00:15:03.332Z,954.8653
2023-04-16T00:16:03.994Z,954.8765
2023-04-16T00:17:04.736Z,954.8865
2023-04-16T00:18:05.459Z,954.8776
2023-04-16T00:19:06.133Z,954.8853
2023-04-16T00:20:06.775Z,954.8882
2023-04-16T00:21:07.441Z,954.8900
2023-04-16T00:22:08.117Z,954.8871
2023-04-16T00:23:08.814Z,954.8812
2023-04-16T00:24:09.451Z,954.8653
2023-04-16T00:25:10.100Z,954.8700
2023-04-16T00:26:10.739Z,954.8671
2023-04-16T00:27:11.722Z,954.8647
2023-04-16T00:28:12.337Z,954.8535
2023-04-16T00:29:13.003Z,954.8482
2023-04-16T00:30:13.623Z,954.8394
2023-04-16T00:31:14.568Z,954.8571
2023-04-16T00:32:15.248Z,954.8618
2023-04-16T00:33:15.900Z,954.8729
2023-04-16T00:34:18.408Z,954.8788
2023-04-16T00:35:19.066Z,954.8776
2023-04-16T00:36:19.943Z,954.8765
2023-04-16T00:37:20.570Z,954.8953
2023-04-16T00:38:21.230Z,954.8941
2023-04-16T00:39:21.999Z,954.8942
2023-04-16T00:40:22.683Z,954.8959
2023-04-16T00:41:23.298Z,954.9030
2023-04-16T00:42:23.994Z,954.9053
2023-04-16T00:43:24.636Z,954.8936
2023-04-16T00:44:25.297Z,954.8965
2023-04-16T00:45:25.956Z,954.8988
2023-04-16T00:46:26.680Z,954.8859
2023-04-16T00:47:27.310Z,954.8918
2023-04-16T00:48:28.017Z,954.8871
2023-04-16T00:49:28.646Z,954.8941
2023-04-16T00:50:29.314Z,954.8988
2023-04-16T00:51:29.997Z,954.9088
2023-04-16T00:52:30.621Z,954.9000
2023-04-16T00:53:31.295Z,954.9000
2023-04-16T00:54:31.959Z,954.9088
2023-04-16T00:55:32.633Z,954.9030
2023-04-16T00:56:33.278Z,954.8994
2023-04-16T00:57:33.981Z,954.9059
2023-04-16T00:58:34.643Z,954.8959
2023-04-16T00:59:35.288Z,954.9017
2023-04-16T01:00:35.933Z,954.9088
2023-04-16T01:01:36.616Z,954.9106
2023-04-16T01:02:37.336Z,954.9164
2023-04-16T01:03:38.179Z,954.9376
2023-04-16T01:04:38.877Z,954.9341
2023-04-16T01:05:39.544Z,954.9506
2023-04-16T01:06:40.260Z,954.9394
2023-04-16T01:07:40.904Z,954.9412
2023-04-16T01:08:41.534Z,954.9324
2023-04-16T01:09:42.208Z,954.9182
2023-04-16T01:10:42.872Z,954.9258
2023-04-16T01:11:43.493Z,954.9194
2023-04-16T01:12:44.130Z,954.9253
2023-04-16T01:13:44.778Z,954.9182
2023-04-16T01:14:45.878Z,954.9293
2023-04-16T01:15:46.530Z,954.9412
2023-04-16T01:16:47.184Z,954.9459
2023-04-16T01:17:47.856Z,954.9476
2023-04-16T01:18:48.483Z,954.9500
2023-04-16T01:19:49.173Z,954.9524
2023-04-16T01:20:49.870Z,954.9553
2023-04-16T01:21:50.550Z,954.9618
2023-04-16T01:22:51.254Z,954.9647
2023-04-16T01:23:51.928Z,954.9636
2023-04-16T01:24:52.666Z,954.9583
2023-04-16T01:25:53.365Z,954.9489
2023-04-16T01:26:54.047Z,954.9447
2023-04-16T01:27:54.728Z,954.9465
2023-04-16T01:28:55.400Z,954.9376
2023-04-16T01:29:56.092Z,954.9365
2023-04-16T01:30:56.799Z,954.9424
2023-04-16T01:31:57.468Z,954.9318
2023-04-16T01:32:58.200Z,954.9482
2023-04-16T01:33:59.118Z,954.9465
2023-04-16T01:34:59.818Z,954.9471
2023-04-16T01:36:00.587Z,954.9394
2023-04-16T01:37:01.419Z,954.9700
2023-04-16T01:38:02.091Z,954.9894
2023-04-16T01:39:02.764Z,954.9877
2023-04-16T01:40:03.453Z,954.9735
2023-04-16T01:41:04.163Z,954.9794
2023-04-16T01:42:04.897Z,954.9994
2023-04-16T01:43:05.603Z,954.9906
2023-04-16T01:44:06.297Z,955.0047
2023-04-16T01:45:06.979Z,955.0029
2023-04-16T01:46:07.682Z,955.0171
2023-04-16T01:47:08.362Z,955.0289
2023-04-16T01:48:09.079Z,955.0382
2023-04-16T01:49:09.949Z,955.0370
2023-04-16T01:50:10.700Z,955.0382
2023-04-16T01:51:11.658Z,955.0441
2023-04-16T01:52:12.331Z,955.0635
2023-04-16T01:53:13.012Z,955.0659
2023-04-16T01:54:13.686Z,955.0742
2023-04-16T01:55:14.404Z,955.0729
2023-04-16T01:56:15.106Z,955.0812
2023-04-16T01:57:15.776Z,955.0930
2023-04-16T01:58:16.439Z,955.0806
2023-04-16T01:59:17.358Z,955.1011
2023-04-16T02:00:18.043Z,955.0977
2023-04-16T02:01:18.809Z,955.1088
2023-04-16T02:02:19.575Z,955.1158
2023-04-16T02:03:20.419Z,955.1324
2023-04-16T02:04:21.144Z,955.1376
2023-04-16T06:48:58.668Z,955.1434
2023-04-16T06:48:58.668Z,955.1400
2023-04-16T06:49:52.696Z,956.3547
2023-04-16T06:50:53.493Z,956.3653
2023-04-16T06:51:54.167Z,956.3847
2023-04-16T06:52:54.856Z,956.4041
2023-04-16T06:53:55.659Z,956.4265
2023-04-16T06:54:56.407Z,956.4294
2023-04-16T06:55:57.227Z,956.4335
2023-04-16T06:56:58.150Z,956.4288
2023-04-16T06:57:58.771Z,956.4312
2023-04-16T06:58:59.452Z,956.4506
2023-04-16T07:00:00.243Z,956.4506
2023-04-16T07:01:00.995Z,956.4659
2023-04-16T07:02:01.873Z,956.4636
2023-04-16T07:03:03.130Z,956.4647
2023-04-16T07:04:04.041Z,956.4565
2023-04-16T07:05:04.852Z,956.4583
2023-04-16T07:06:05.532Z,956.4594
2023-04-16T07:07:06.238Z,956.4589
2023-04-16T07:08:06.951Z,956.4565
2023-04-16T07:09:07.788Z,956.4376
2023-04-16T07:10:08.555Z,956.4164
2023-04-16T07:11:09.262Z,956.4359
2023-04-16T07:12:09.933Z,956.4588
2023-04-16T07:13:10.864Z,956.4688
2023-04-16T07:14:11.746Z,956.4771
2023-04-16T07:15:12.418Z,956.4924
2023-04-16T07:16:13.469Z,956.4947
2023-04-16T07:17:14.145Z,956.5118
2023-04-16T07:18:14.848Z,956.5024
2023-04-16T07:19:15.547Z,956.5024
2023-04-16T07:20:16.262Z,956.5100
2023-04-16T07:21:17.478Z,956.4994
2023-04-16T07:22:18.114Z,956.4953
2023-04-16T07:23:18.820Z,956.5147
2023-04-16T07:24:19.570Z,956.5135
2023-04-16T07:25:20.252Z,956.5124
2023-04-16T07:26:20.929Z,956.5236
2023-04-16T07:27:21.751Z,956.5294
2023-04-16T07:28:22.410Z,956.5377
2023-04-16T07:29:23.290Z,956.5271
2023-04-16T07:30:24.098Z,956.5253
2023-04-16T07:31:24.835Z,956.5341
2023-04-16T07:32:25.626Z,956.5330
2023-04-16T07:33:26.559Z,956.5388
2023-04-16T07:34:27.293Z,956.5476
2023-04-16T07:35:27.982Z,956.5635
2023-04-16T07:36:28.646Z,956.5706
2023-04-16T07:37:29.369Z,956.5653
2023-04-16T07:38:30.026Z,956.5765
2023-04-16T07:39:30.717Z,956.5765
2023-04-16T07:40:31.427Z,956.6024
2023-04-16T07:41:32.367Z,956.6064
2023-04-16T07:42:33.035Z,956.6100
2023-04-16T07:47:58.135Z,956.6041
2023-04-16T07:47:58.135Z,956.6200
2023-04-16T07:48:51.853Z,956.6514
2023-04-16T07:49:52.769Z,956.6612
2023-04-16T07:50:53.455Z,956.6735
2023-04-16T07:51:54.381Z,956.6724
2023-04-16T07:52:55.242Z,956.6818
2023-04-16T07:53:56.000Z,956.7047
2023-04-16T07:54:56.859Z,956.7300
2023-04-16T07:55:57.732Z,956.7324
2023-04-16T07:56:58.478Z,956.7435
2023-04-16T07:57:59.689Z,956.7629
2023-04-16T07:59:07.833Z,956.7465
2023-04-16T08:00:03.738Z,956.7456
2023-04-16T08:01:04.420Z,956.7723
2023-04-16T08:02:05.186Z,956.7806
2023-04-16T08:03:06.011Z,956.7882
2023-04-16T08:04:07.087Z,956.8058
2023-04-16T08:05:07.865Z,956.8218
2023-04-16T08:06:08.568Z,956.8294
2023-04-16T08:07:09.241Z,956.8224
2023-04-16T08:08:11.457Z,956.8306
2023-04-16T08:09:12.294Z,956.8406
2023-04-16T08:10:13.043Z,956.8412
2023-04-16T08:11:13.848Z,956.8477
2023-04-16T08:12:14.546Z,956.8647
2023-04-16T08:18:09.950Z,956.8780
2023-04-16T08:18:09.950Z,956.9000
2023-04-16T08:19:10.970Z,956.9218
2023-04-16T08:20:15.060Z,956.9359
2023-04-16T08:21:15.328Z,956.9556
2023-04-16T08:22:16.305Z,956.9729
2023-04-16T08:23:17.208Z,956.9788
2023-04-16T08:24:17.918Z,956.9777
2023-04-16T08:25:18.605Z,956.9871
2023-04-16T08:26:19.561Z,956.9958
2023-04-16T08:27:20.502Z,957.0200
2023-04-16T08:28:21.230Z,957.0171
2023-04-16T08:29:22.388Z,957.0229
2023-04-16T08:30:23.064Z,957.0100
2023-04-16T08:31:23.836Z,957.0229
2023-04-16T08:32:24.637Z,957.0300
2023-04-16T08:33:25.636Z,957.0388
2023-04-16T08:34:26.368Z,957.0524
2023-04-16T08:35:27.112Z,957.0511
2023-04-16T08:36:27.853Z,957.0553
2023-04-16T08:37:28.542Z,957.0553
2023-04-16T08:38:29.505Z,957.0524
2023-04-16T08:39:30.183Z,957.0676
2023-04-16T08:40:30.950Z,957.0818
2023-04-16T08:41:31.648Z,957.0842
2023-04-16T08:42:32.394Z,957.1017
2023-04-16T08:43:33.093Z,957.1176
2023-04-16T08:44:33.808Z,957.1194
2023-04-16T08:45:34.565Z,957.1229
2023-04-16T08:46:35.311Z,957.1224
2023-04-16T08:47:36.019Z,957.1276
2023-04-16T08:48:36.727Z,957.1389
2023-04-16T08:49:37.434Z,957.1570
2023-04-16T08:50:38.406Z,957.1547
2023-04-16T08:51:39.225Z,957.1471
2023-04-16T08:52:39.912Z,957.1553
2023-04-16T08:53:40.738Z,957.1541
2023-04-16T08:54:41.496Z,957.1606
2023-04-16T08:55:42.289Z,957.1570
2023-04-16T11:00:38.375Z,957.1806
2023-04-16T11:00:38.375Z,957.1900
2023-04-16T11:26:09.643Z,957.5900
2023-04-16T11:26:09.643Z,957.5900
2023-04-16T11:41:49.429Z,957.6300
2023-04-16T11:41:49.429Z,957.6300
2023-04-16T11:42:20.271Z,957.7100
2023-04-16T11:43:21.076Z,957.6976
2023-04-16T11:44:21.949Z,957.7170
2023-04-16T11:45:22.931Z,957.7147
2023-04-16T11:46:27.841Z,957.7235
2023-04-16T11:47:25.994Z,957.7075
2023-04-16T11:48:26.917Z,957.7188
2023-04-16T11:49:27.715Z,957.7071
2023-04-16T11:50:28.533Z,957.6976
2023-04-16T11:51:29.368Z,957.7117
2023-04-16T11:52:30.239Z,957.7012
2023-04-16T11:53:31.052Z,957.7165
2023-04-16T11:54:31.819Z,957.6971
2023-04-16T11:55:32.623Z,957.7006
2023-04-16T11:56:33.469Z,957.6776
2023-04-16T11:57:35.782Z,957.7012
2023-04-16T11:58:36.821Z,957.7065
2023-04-16T11:59:36.751Z,957.6840
2023-04-16T12:00:38.351Z,957.6976
2023-04-16T12:01:40.777Z,957.7183
2023-04-16T12:02:43.403Z,957.7453
2023-04-16T12:03:46.066Z,957.7411
2023-04-16T12:42:25.168Z,957.7350
2023-04-16T12:42:25.168Z,957.7300
2023-04-16T13:08:26.719Z,957.8100
2023-04-16T13:08:26.719Z,957.8700
2023-04-16T13:08:57.038Z,957.8500
2023-04-16T13:09:57.797Z,957.8559
2023-04-16T13:10:58.601Z,957.8376
2023-04-16T13:11:59.401Z,957.8147
2023-04-16T13:13:00.258Z,957.8406
2023-04-16T13:14:01.086Z,957.8500
2023-04-16T13:15:02.193Z,957.8447
2023-04-16T13:16:02.973Z,957.8559
2023-04-16T13:17:03.769Z,957.8477
2023-04-16T13:18:04.642Z,957.8571
2023-04-16T13:19:05.440Z,957.8647
2023-04-16T13:20:06.205Z,957.8729
2023-04-16T13:21:07.003Z,957.8594
2023-04-16T13:22:08.589Z,957.8753
2023-04-16T13:23:09.367Z,957.8818
2023-04-16T13:24:10.123Z,957.8588
2023-04-16T13:25:10.873Z,957.8347
2023-04-16T13:26:11.597Z,957.8412
2023-04-16T13:27:12.364Z,957.8294
2023-04-16T13:28:13.106Z,957.8141
2023-04-16T13:29:13.853Z,957.7830
2023-04-16T13:30:14.587Z,957.8459
2023-04-16T13:31:15.388Z,957.8477
2023-04-16T13:32:16.113Z,957.8247
2023-04-16T13:33:16.978Z,957.7977
2023-04-16T13:34:17.719Z,957.7941
2023-04-16T13:35:18.445Z,957.7977
2023-04-16T13:36:19.220Z,957.8053
2023-04-16T13:37:19.951Z,957.8024
2023-04-16T13:38:20.719Z,957.8065
2023-04-16T13:39:21.617Z,957.7765
2023-04-16T13:40:22.295Z,957.8112
2023-04-16T13:41:23.066Z,957.7682
2023-04-16T13:42:24.142Z,957.7835
2023-04-16T13:43:24.909Z,957.7535
2023-04-16T13:44:25.656Z,957.7288
2023-04-16T13:45:26.414Z,957.7165
2023-04-16T13:46:27.147Z,957.7153
2023-04-16T13:47:27.889Z,957.7188
2023-04-16T13:48:28.688Z,957.7453
2023-04-16T13:49:29.743Z,957.7371
2023-04-16T13:50:30.555Z,957.7589
2023-04-16T13:51:32.132Z,957.7547
2023-04-16T13:52:32.929Z,957.7506
2023-04-16T13:53:33.745Z,957.7353
2023-04-16T13:54:34.737Z,957.7465
2023-04-16T13:55:35.605Z,957.7535
2023-04-16T13:56:36.405Z,957.7535
2023-04-16T13:57:37.198Z,957.7817
2023-04-16T13:58:38.570Z,957.7723
2023-04-16T13:59:40.573Z,957.8100
2023-04-16T14:00:41.413Z,957.8147
2023-04-16T14:01:42.218Z,957.7935
2023-04-16T14:02:43.176Z,957.7929
2023-04-16T14:03:44.364Z,957.8006
2023-04-16T14:04:45.555Z,957.7870
2023-04-16T14:05:47.133Z,957.8323
2023-04-16T14:06:48.508Z,957.8224
2023-04-16T14:07:49.567Z,957.8371
2023-04-16T14:08:50.383Z,957.8441
2023-04-16T14:09:51.156Z,957.7783
2023-04-16T14:10:52.638Z,957.8000
2023-04-16T14:11:54.656Z,957.8006
2023-04-16T14:12:55.391Z,957.7988
2023-04-16T14:13:56.234Z,957.8135
2023-04-16T14:14:57.009Z,957.8535
2023-04-16T14:15:57.869Z,957.8735
2023-04-16T14:16:59.669Z,957.8629
2023-04-16T14:18:00.660Z,957.8430
2023-04-16T14:19:01.571Z,957.8359
2023-04-16T14:20:03.025Z,957.8629
2023-04-16T14:21:03.736Z,957.8600
2023-04-16T14:22:04.576Z,957.8547
2023-04-16T14:23:05.305Z,957.8818
2023-04-16T14:24:06.063Z,957.8806
2023-04-16T14:25:06.815Z,957.9035
2023-04-16T14:26:07.641Z,957.8718
2023-04-16T14:27:08.507Z,957.8688
2023-04-16T14:28:09.298Z,957.8600
2023-04-16T14:29:10.741Z,957.8812
2023-04-16T14:30:11.638Z,957.8776
2023-04-16T14:31:12.520Z,957.8418
2023-04-16T14:32:13.775Z,957.8577
2023-04-16T14:33:14.540Z,957.8694
2023-04-16T14:34:15.553Z,957.8747
2023-04-16T14:35:16.300Z,957.8470
2023-04-16T14:36:17.233Z,957.8600
2023-04-16T14:37:17.983Z,957.8611
2023-04-16T14:38:18.850Z,957.8388
2023-04-16T14:39:19.647Z,957.8547
2023-04-16T14:40:20.615Z,957.8724
2023-04-16T14:41:21.466Z,957.8470
2023-04-16T14:42:22.257Z,957.8517
2023-04-16T14:43:23.554Z,957.8582
2023-04-16T14:44:25.087Z,957.8500
2023-04-16T14:45:25.886Z,957.8218
2023-04-16T14:46:26.655Z,957.8582
2023-04-16T14:47:27.413Z,957.8835
2023-04-16T14:48:28.235Z,957.8712
2023-04-16T14:49:29.079Z,957.8882
2023-04-16T14:50:30.117Z,957.9117
2023-04-16T14:51:30.919Z,957.8889
2023-04-16T14:52:31.774Z,957.8729
2023-04-16T14:53:32.694Z,957.8912
2023-04-16T14:54:33.544Z,957.8765
2023-04-16T14:55:34.383Z,957.9224
2023-04-16T14:56:35.405Z,957.8971
2023-04-16T14:57:36.239Z,957.9100
2023-04-16T14:58:38.647Z,957.8918
2023-04-16T14:59:40.689Z,957.9224
2023-04-16T15:00:41.561Z,957.9153
2023-04-16T15:01:42.397Z,957.9388
2023-04-16T15:02:43.371Z,957.9347
2023-04-16T15:03:45.732Z,957.9200
2023-04-16T15:04:47.842Z,957.9594
2023-04-16T15:05:49.702Z,957.9482
2023-04-16T15:06:55.515Z,957.9847
